createdAt,value
2022-11-30T00:00:40.852Z,95811.41
2022-11-30T00:01:42.740Z,95811.41
2022-11-30T00:02:45.747Z,95811.41
2022-11-30T00:03:52.892Z,95807.16
2022-11-30T00:04:55.911Z,95816.84
2022-11-30T00:06:04.055Z,95805.97
2022-11-30T00:07:06.892Z,95811.78
2022-11-30T00:08:08.885Z,95810.22
2022-11-30T00:09:13.166Z,95815.22
2022-11-30T00:10:15.333Z,95817.16
2022-11-30T00:11:20.863Z,95819.88
2022-11-30T00:12:22.719Z,95815.22
2022-11-30T00:13:25.680Z,95817.56
2022-11-30T00:14:27.531Z,95808.25
2022-11-30T00:15:30.406Z,95812.16
2022-11-30T00:16:32.542Z,95812.53
2022-11-30T00:17:35.483Z,95816.78
2022-11-30T00:18:37.876Z,95812.94
2022-11-30T00:19:42.100Z,95807.53
2022-11-30T00:20:44.091Z,95812.53
2022-11-30T00:21:47.000Z,95809.06
2022-11-30T00:22:49.028Z,95807.91
2022-11-30T00:23:52.303Z,95808.69
2022-11-30T00:24:54.191Z,95817.59
2022-11-30T00:25:57.034Z,95813.72
2022-11-30T00:26:58.879Z,95816.06
2022-11-30T00:28:02.261Z,95802.50
2022-11-30T00:29:04.161Z,95810.63
2022-11-30T00:30:08.880Z,95816.81
2022-11-30T00:31:13.004Z,95812.94
2022-11-30T00:32:15.853Z,95810.63
2022-11-30T00:33:19.543Z,95817.59
2022-11-30T00:34:22.527Z,95811.00
2022-11-30T00:35:25.772Z,95812.16
2022-11-30T00:36:28.668Z,95814.88
2022-11-30T00:37:30.578Z,95813.72
2022-11-30T00:38:34.024Z,95810.22
2022-11-30T00:39:36.913Z,95815.28
2022-11-30T00:40:38.738Z,95813.72
2022-11-30T00:41:41.576Z,95817.59
2022-11-30T00:42:43.417Z,95820.66
2022-11-30T00:43:46.644Z,95819.91
2022-11-30T00:44:48.704Z,95819.13
2022-11-30T00:45:51.811Z,95825.31
2022-11-30T00:46:54.774Z,95828.81
2022-11-30T00:47:56.727Z,95823.75
2022-11-30T00:48:59.615Z,95828.78
2022-11-30T00:50:01.531Z,95820.25
2022-11-30T00:51:06.913Z,95826.44
2022-11-30T00:52:08.772Z,95817.13
2022-11-30T00:53:11.650Z,95824.47
2022-11-30T00:54:13.682Z,95830.66
2022-11-30T00:55:16.760Z,95830.25
2022-11-30T00:56:18.672Z,95826.78
2022-11-30T00:57:21.582Z,95826.03
2022-11-30T00:58:23.488Z,95830.66
2022-11-30T00:59:26.296Z,95833.00
2022-11-30T01:00:28.577Z,95830.69
2022-11-30T01:01:31.699Z,95832.22
2022-11-30T01:02:33.612Z,95828.38
2022-11-30T01:03:37.828Z,95833.78
2022-11-30T01:04:39.731Z,95837.25
2022-11-30T01:05:43.192Z,95830.66
2022-11-30T01:06:46.398Z,95832.22
2022-11-30T01:07:49.375Z,95841.13
2022-11-30T01:08:51.667Z,95840.72
2022-11-30T01:09:54.490Z,95842.28
2022-11-30T01:10:57.828Z,95842.28
2022-11-30T01:12:00.802Z,95845.38
2022-11-30T01:13:03.483Z,95839.94
2022-11-30T01:14:06.402Z,95845.38
2022-11-30T01:15:09.252Z,95845.38
2022-11-30T01:16:15.677Z,95840.75
2022-11-30T01:17:17.596Z,95837.66
2022-11-30T01:18:20.473Z,95836.09
2022-11-30T01:19:22.325Z,95839.22
2022-11-30T01:20:25.198Z,95839.22
2022-11-30T01:21:29.217Z,95841.53
2022-11-30T01:22:33.484Z,95842.31
2022-11-30T01:23:35.438Z,95842.69
2022-11-30T01:24:38.442Z,95840.75
2022-11-30T01:25:40.387Z,95850.03
2022-11-30T01:26:43.239Z,95841.91
2022-11-30T01:27:48.472Z,95840.75
2022-11-30T01:28:52.337Z,95838.81
2022-11-30T01:29:54.175Z,95839.59
2022-11-30T01:30:58.321Z,95843.09
2022-11-30T01:32:00.198Z,95844.22
2022-11-30T01:33:04.422Z,95835.72
2022-11-30T01:34:06.332Z,95843.84
2022-11-30T01:35:10.046Z,95849.28
2022-11-30T01:36:13.899Z,95841.16
2022-11-30T01:37:16.939Z,95845.44
2022-11-30T01:38:20.197Z,95840.00
2022-11-30T01:39:23.390Z,95838.44
2022-11-30T01:40:25.248Z,95840.00
2022-11-30T01:41:29.565Z,95839.97
2022-11-30T01:42:32.959Z,95843.84
2022-11-30T01:43:41.309Z,95843.06
2022-11-30T01:44:51.968Z,95838.44
2022-11-30T01:45:54.967Z,95844.63
2022-11-30T01:47:00.430Z,95839.97
2022-11-30T01:48:03.289Z,95843.47
2022-11-30T01:49:13.872Z,95842.69
2022-11-30T01:50:22.500Z,95844.63
2022-11-30T01:51:26.587Z,95846.16
2022-11-30T01:52:34.788Z,95851.59
2022-11-30T01:53:39.338Z,95850.03
2022-11-30T01:54:46.573Z,95844.63
2022-11-30T01:55:49.283Z,95839.22
2022-11-30T01:56:54.983Z,95841.16
2022-11-30T01:58:00.391Z,95846.16
2022-11-30T01:59:03.356Z,95837.28
2022-11-30T02:00:07.985Z,95842.69
2022-11-30T02:01:16.368Z,95844.63
2022-11-30T02:02:22.886Z,95846.56
2022-11-30T02:03:32.687Z,95845.78
2022-11-30T02:04:37.138Z,95851.19
2022-11-30T02:05:42.390Z,95842.28
2022-11-30T02:06:45.599Z,95846.16
2022-11-30T02:07:48.704Z,95845.38
2022-11-30T02:08:52.741Z,95843.47
2022-11-30T02:09:55.596Z,95846.94
2022-11-30T02:11:00.101Z,95840.75
2022-11-30T02:12:06.724Z,95844.22
2022-11-30T02:13:32.839Z,95844.22
2022-11-30T02:14:42.076Z,95843.47
2022-11-30T02:15:54.484Z,95843.84
2022-11-30T02:17:08.058Z,95839.94
2022-11-30T02:18:14.527Z,95840.75
2022-11-30T02:20:03.031Z,95838.41
2022-11-30T02:21:13.947Z,95837.66
2022-11-30T02:22:30.213Z,95842.28
2022-11-30T02:23:52.092Z,95836.88
2022-11-30T02:25:07.938Z,95843.84
2022-11-30T02:26:25.702Z,95837.25
2022-11-30T02:27:47.027Z,95843.84
2022-11-30T02:29:04.720Z,95850.78
2022-11-30T02:30:12.460Z,95845.38
2022-11-30T02:31:20.320Z,95848.84
2022-11-30T02:32:28.044Z,95845.00
2022-11-30T02:33:33.193Z,95851.56
2022-11-30T02:34:38.523Z,95853.13
2022-11-30T02:35:44.239Z,95848.06
2022-11-30T02:36:49.114Z,95854.25
2022-11-30T02:37:54.367Z,95848.84
2022-11-30T02:38:57.889Z,95847.72
2022-11-30T02:40:00.825Z,95852.31
2022-11-30T02:41:03.792Z,95850.78
2022-11-30T02:42:07.655Z,95855.03
2022-11-30T02:43:09.652Z,95848.84
2022-11-30T02:44:14.569Z,95855.84
2022-11-30T02:45:18.081Z,95851.56
2022-11-30T02:46:27.280Z,95852.72
2022-11-30T02:47:37.800Z,95854.63
2022-11-30T02:48:44.236Z,95855.44
2022-11-30T02:49:53.312Z,95860.84
2022-11-30T02:51:00.488Z,95855.44
2022-11-30T02:52:04.653Z,95857.34
2022-11-30T02:53:07.408Z,95855.44
2022-11-30T02:54:10.601Z,95850.00
2022-11-30T02:55:16.144Z,95844.59
2022-11-30T02:56:20.775Z,95852.72
2022-11-30T02:57:22.630Z,95853.09
2022-11-30T02:58:25.469Z,95855.03
2022-11-30T02:59:29.595Z,95854.63
2022-11-30T03:00:32.624Z,95853.06
2022-11-30T03:01:34.658Z,95849.59
2022-11-30T03:02:37.944Z,95857.72
2022-11-30T03:03:39.918Z,95844.94
2022-11-30T03:04:42.747Z,95851.53
2022-11-30T03:05:44.679Z,95856.94
2022-11-30T03:06:47.521Z,95851.53
2022-11-30T03:07:49.593Z,95849.59
2022-11-30T03:08:52.481Z,95854.22
2022-11-30T03:09:54.340Z,95850.34
2022-11-30T03:10:57.651Z,95845.75
2022-11-30T03:11:59.492Z,95855.41
2022-11-30T03:13:02.384Z,95854.63
2022-11-30T03:14:04.300Z,95854.63
2022-11-30T03:15:09.123Z,95856.16
2022-11-30T03:16:13.203Z,95857.34
2022-11-30T03:17:16.130Z,95861.59
2022-11-30T03:18:18.092Z,95853.47
2022-11-30T03:19:20.985Z,95858.13
2022-11-30T03:20:22.888Z,95859.28
2022-11-30T03:21:25.938Z,95855.41
2022-11-30T03:22:27.767Z,95853.47
2022-11-30T03:23:30.607Z,95867.00
2022-11-30T03:24:32.433Z,95862.75
2022-11-30T03:25:35.386Z,95866.25
2022-11-30T03:26:37.314Z,95868.19
2022-11-30T03:27:40.242Z,95867.00
2022-11-30T03:28:42.138Z,95867.81
2022-11-30T03:29:45.045Z,95866.25
2022-11-30T03:30:50.111Z,95864.31
2022-11-30T03:31:53.050Z,95861.59
2022-11-30T03:32:54.896Z,95867.00
2022-11-30T03:33:57.799Z,95870.50
2022-11-30T03:34:59.713Z,95878.66
2022-11-30T03:36:03.362Z,95867.00
2022-11-30T03:37:05.279Z,95872.44
2022-11-30T03:38:08.267Z,95877.06
2022-11-30T03:39:10.562Z,95881.72
2022-11-30T03:40:14.013Z,95868.53
2022-11-30T03:41:17.494Z,95871.66
2022-11-30T03:42:20.357Z,95877.06
2022-11-30T03:43:22.286Z,95880.91
2022-11-30T03:44:25.152Z,95879.34
2022-11-30T03:45:26.986Z,95884.00
2022-11-30T03:46:31.369Z,95873.16
2022-11-30T03:47:33.220Z,95880.88
2022-11-30T03:48:36.476Z,95879.34
2022-11-30T03:49:38.304Z,95882.38
2022-11-30T03:50:42.125Z,95877.75
2022-11-30T03:51:44.991Z,95871.53
2022-11-30T03:52:46.909Z,95881.66
2022-11-30T03:53:49.781Z,95875.44
2022-11-30T03:54:51.691Z,95873.13
2022-11-30T03:55:55.756Z,95877.38
2022-11-30T03:56:57.653Z,95867.69
2022-11-30T03:58:00.556Z,95873.13
2022-11-30T03:59:02.396Z,95873.13
2022-11-30T04:00:06.922Z,95869.63
2022-11-30T04:01:17.464Z,95869.25
2022-11-30T04:02:21.769Z,95870.81
2022-11-30T04:03:23.758Z,95873.88
2022-11-30T04:04:26.693Z,95866.94
2022-11-30T04:05:29.061Z,95879.72
2022-11-30T04:06:31.996Z,95879.34
2022-11-30T04:07:34.198Z,95874.28
2022-11-30T04:08:38.447Z,95871.97
2022-11-30T04:09:40.346Z,95878.16
2022-11-30T04:10:43.213Z,95869.28
2022-11-30T04:11:45.092Z,95875.47
2022-11-30T04:12:48.170Z,95870.44
2022-11-30T04:13:50.102Z,95879.34
2022-11-30T04:14:52.956Z,95881.28
2022-11-30T04:15:55.669Z,95873.16
2022-11-30T04:16:58.588Z,95873.16
2022-11-30T04:18:01.979Z,95869.28
2022-11-30T04:19:05.202Z,95867.75
2022-11-30T04:20:08.026Z,95871.22
2022-11-30T04:21:11.600Z,95872.00
2022-11-30T04:22:13.411Z,95869.28
2022-11-30T04:23:16.288Z,95867.38
2022-11-30T04:24:18.132Z,95872.78
2022-11-30T04:25:21.033Z,95877.41
2022-11-30T04:26:23.002Z,95870.44
2022-11-30T04:27:25.945Z,95874.69
2022-11-30T04:28:27.779Z,95873.16
2022-11-30T04:29:30.607Z,95875.09
2022-11-30T04:30:33.156Z,95878.56
2022-11-30T04:31:36.123Z,95879.34
2022-11-30T04:32:38.037Z,95870.00
2022-11-30T04:33:42.298Z,95880.44
2022-11-30T04:34:44.349Z,95880.03
2022-11-30T04:35:50.707Z,95886.22
2022-11-30T04:36:56.051Z,95881.56
2022-11-30T04:38:02.901Z,95873.06
2022-11-30T04:39:04.848Z,95878.50
2022-11-30T04:40:08.927Z,95881.59
2022-11-30T04:41:10.941Z,95882.75
2022-11-30T04:42:13.785Z,95885.44
2022-11-30T04:43:15.647Z,95871.53
2022-11-30T04:44:18.470Z,95875.03
2022-11-30T04:45:20.356Z,95873.84
2022-11-30T04:46:23.270Z,95877.72
2022-11-30T04:47:25.174Z,95884.69
2022-11-30T04:48:28.023Z,95879.25
2022-11-30T04:49:31.245Z,95881.19
2022-11-30T04:50:34.738Z,95881.59
2022-11-30T04:51:36.646Z,95874.66
2022-11-30T04:52:39.554Z,95876.19
2022-11-30T04:53:41.430Z,95877.75
2022-11-30T04:54:44.386Z,95878.53
2022-11-30T04:55:46.349Z,95884.72
2022-11-30T04:56:49.279Z,95877.38
2022-11-30T04:57:51.290Z,95887.44
2022-11-30T04:58:54.113Z,95883.94
2022-11-30T04:59:56.107Z,95887.78
2022-11-30T05:00:58.934Z,95888.59
2022-11-30T05:02:00.818Z,95875.41
2022-11-30T05:03:04.212Z,95892.44
2022-11-30T05:04:06.159Z,95893.22
2022-11-30T05:05:11.838Z,95893.22
2022-11-30T05:06:13.748Z,95882.38
2022-11-30T05:07:16.589Z,95885.09
2022-11-30T05:08:18.497Z,95885.09
2022-11-30T05:09:21.410Z,95883.19
2022-11-30T05:10:23.880Z,95884.72
2022-11-30T05:11:26.754Z,95897.84
2022-11-30T05:12:28.564Z,95895.47
2022-11-30T05:13:31.498Z,95889.22
2022-11-30T05:14:33.684Z,95892.31
2022-11-30T05:15:36.602Z,95889.97
2022-11-30T05:16:38.557Z,95889.94
2022-11-30T05:17:41.438Z,95889.56
2022-11-30T05:18:43.288Z,95889.97
2022-11-30T05:19:46.230Z,95888.03
2022-11-30T05:20:50.047Z,95891.53
2022-11-30T05:21:52.922Z,95897.72
2022-11-30T05:22:55.147Z,95897.31
2022-11-30T05:23:58.058Z,95898.13
2022-11-30T05:24:59.916Z,95894.56
2022-11-30T05:26:03.394Z,95897.69
2022-11-30T05:27:10.977Z,95888.41
2022-11-30T05:28:16.453Z,95900.41
2022-11-30T05:29:18.303Z,95890.78
2022-11-30T05:30:21.570Z,95896.59
2022-11-30T05:31:24.642Z,95886.16
2022-11-30T05:32:27.647Z,95901.66
2022-11-30T05:33:29.526Z,95896.22
2022-11-30T05:34:41.294Z,95893.09
2022-11-30T05:35:53.778Z,95900.44
2022-11-30T05:36:55.690Z,95899.69
2022-11-30T05:37:58.583Z,95897.75
2022-11-30T05:39:00.489Z,95910.53
2022-11-30T05:40:03.562Z,95908.94
2022-11-30T05:41:05.852Z,95907.78
2022-11-30T05:42:09.165Z,95907.38
2022-11-30T05:43:11.219Z,95908.50
2022-11-30T05:44:15.077Z,95913.09
2022-11-30T05:45:17.043Z,95907.69
2022-11-30T05:46:19.890Z,95913.09
2022-11-30T05:47:21.880Z,95914.63
2022-11-30T05:48:24.729Z,95907.63
2022-11-30T05:49:26.523Z,95913.84
2022-11-30T05:50:29.429Z,95913.47
2022-11-30T05:51:32.700Z,95911.56
2022-11-30T05:52:35.539Z,95902.31
2022-11-30T05:53:37.695Z,95906.97
2022-11-30T05:54:40.500Z,95912.44
2022-11-30T05:55:42.679Z,95907.41
2022-11-30T05:56:47.960Z,95909.72
2022-11-30T05:57:54.090Z,95906.28
2022-11-30T05:58:56.916Z,95907.06
2022-11-30T05:59:58.817Z,95916.72
2022-11-30T06:01:01.708Z,95916.34
2022-11-30T06:02:03.718Z,95914.41
2022-11-30T06:03:06.975Z,95917.13
2022-11-30T06:04:09.137Z,95913.28
2022-11-30T06:05:12.186Z,95921.81
2022-11-30T06:06:14.137Z,95916.41
2022-11-30T06:07:18.426Z,95913.69
2022-11-30T06:08:20.415Z,95915.59
2022-11-30T06:09:23.979Z,95912.53
2022-11-30T06:10:27.272Z,95914.47
2022-11-30T06:11:30.108Z,95917.94
2022-11-30T06:12:32.414Z,95908.28
2022-11-30T06:13:35.330Z,95909.03
2022-11-30T06:14:37.310Z,95907.09
2022-11-30T06:15:40.589Z,95908.28
2022-11-30T06:16:42.494Z,95912.53
2022-11-30T06:17:45.431Z,95914.88
2022-11-30T06:18:47.229Z,95915.63
2022-11-30T06:19:50.066Z,95910.22
2022-11-30T06:20:52.007Z,95912.53
2022-11-30T06:21:54.853Z,95909.41
2022-11-30T06:22:59.020Z,95912.88
2022-11-30T06:24:02.063Z,95915.59
2022-11-30T06:25:04.792Z,95916.34
2022-11-30T06:26:09.697Z,95917.13
2022-11-30T06:27:12.750Z,95914.78
2022-11-30T06:28:15.719Z,95915.56
2022-11-30T06:29:18.595Z,95914.78
2022-11-30T06:30:20.865Z,95919.81
2022-11-30T06:31:23.895Z,95915.94
2022-11-30T06:32:25.796Z,95919.44
2022-11-30T06:33:29.441Z,95919.44
2022-11-30T06:34:31.784Z,95910.16
2022-11-30T06:35:34.883Z,95912.88
2022-11-30T06:36:36.736Z,95911.72
2022-11-30T06:37:39.618Z,95917.13
2022-11-30T06:38:42.812Z,95917.94
2022-11-30T06:41:12.056Z,95914.41
2022-11-30T06:42:14.131Z,95916.34
2022-11-30T06:43:17.172Z,95912.88
2022-11-30T06:44:19.314Z,95912.88
2022-11-30T06:45:22.129Z,95909.81
2022-11-30T06:46:24.233Z,95911.72
2022-11-30T06:47:28.395Z,95909.81
2022-11-30T06:48:31.390Z,95913.28
2022-11-30T06:49:34.226Z,95911.72
2022-11-30T06:50:36.297Z,95911.72
2022-11-30T06:51:39.692Z,95913.28
2022-11-30T06:52:41.590Z,95911.72
2022-11-30T06:53:46.796Z,95910.94
2022-11-30T06:54:48.886Z,95914.41
2022-11-30T06:55:52.067Z,95905.53
2022-11-30T06:56:54.109Z,95910.94
2022-11-30T06:57:56.996Z,95915.59
2022-11-30T06:58:58.869Z,95915.59
2022-11-30T07:00:01.791Z,95918.28
2022-11-30T07:01:04.711Z,95921.00
2022-11-30T07:02:11.799Z,95917.53
2022-11-30T07:03:17.239Z,95917.53
2022-11-30T07:04:20.249Z,95919.44
2022-11-30T07:05:22.347Z,95921.00
2022-11-30T07:06:25.167Z,95919.44
2022-11-30T07:07:28.690Z,95925.66
2022-11-30T07:08:31.882Z,95928.72
2022-11-30T07:09:35.492Z,95923.31
2022-11-30T07:10:41.129Z,95927.56
2022-11-30T07:11:43.981Z,95924.84
2022-11-30T07:12:46.504Z,95930.25
2022-11-30T07:13:49.418Z,95922.94
2022-11-30T07:14:52.754Z,95931.06
2022-11-30T07:15:55.609Z,95930.25
2022-11-30T07:16:58.008Z,95934.91
2022-11-30T07:18:01.665Z,95932.19
2022-11-30T07:19:04.537Z,95927.97
2022-11-30T07:20:07.800Z,95926.81
2022-11-30T07:21:11.819Z,95931.06
2022-11-30T07:22:14.274Z,95925.66
2022-11-30T07:23:34.640Z,95921.41
2022-11-30T07:24:56.437Z,95930.31
2022-11-30T07:26:09.298Z,95927.97
2022-11-30T07:27:11.231Z,95928.75
2022-11-30T07:28:14.169Z,95922.53
2022-11-30T07:29:16.097Z,95928.75
2022-11-30T07:30:19.478Z,95928.75
2022-11-30T07:31:24.709Z,95927.97
2022-11-30T07:32:27.654Z,95929.53
2022-11-30T07:33:31.724Z,95930.66
2022-11-30T07:34:34.641Z,95930.66
2022-11-30T07:35:36.565Z,95924.84
2022-11-30T07:36:39.465Z,95931.06
2022-11-30T07:37:42.307Z,95930.25
2022-11-30T07:38:45.770Z,95931.44
2022-11-30T07:39:50.091Z,95932.59
2022-11-30T07:40:52.182Z,95938.00
2022-11-30T07:41:55.053Z,95932.59
2022-11-30T07:42:56.996Z,95932.59
2022-11-30T07:44:00.380Z,95921.75
2022-11-30T07:45:02.409Z,95927.19
2022-11-30T07:46:05.632Z,95927.19
2022-11-30T07:47:08.511Z,95927.94
2022-11-30T07:48:10.475Z,95935.69
2022-11-30T07:49:13.377Z,95931.44
2022-11-30T07:50:15.350Z,95939.56
2022-11-30T07:51:20.175Z,95928.72
2022-11-30T07:52:22.964Z,95929.50
2022-11-30T07:53:24.889Z,95936.84
2022-11-30T07:54:27.815Z,95934.13
2022-11-30T07:55:31.309Z,95936.84
2022-11-30T07:56:34.242Z,95939.56
2022-11-30T07:57:37.325Z,95946.50
2022-11-30T07:58:39.692Z,95942.25
2022-11-30T07:59:42.633Z,95935.69
2022-11-30T08:00:45.626Z,95941.09
2022-11-30T08:01:47.934Z,95937.25
2022-11-30T08:02:51.610Z,95935.69
2022-11-30T08:03:55.158Z,95937.25
2022-11-30T08:04:58.687Z,95938.38
2022-11-30T08:06:03.311Z,95926.41
2022-11-30T08:07:05.196Z,95935.69
2022-11-30T08:08:08.103Z,95929.50
2022-11-30T08:09:19.212Z,95930.25
2022-11-30T08:10:25.267Z,95931.06
2022-11-30T08:11:31.219Z,95935.69
2022-11-30T08:12:33.101Z,95931.84
2022-11-30T08:13:35.976Z,95932.59
2022-11-30T08:15:11.009Z,95927.56
2022-11-30T08:16:05.338Z,95926.41
2022-11-30T08:17:09.986Z,95930.66
2022-11-30T08:18:11.861Z,95927.97
2022-11-30T08:19:14.978Z,95928.75
2022-11-30T08:20:17.126Z,95934.94
2022-11-30T08:21:22.146Z,95935.72
2022-11-30T08:22:24.998Z,95931.06
2022-11-30T08:23:28.437Z,95937.25
2022-11-30T08:24:31.266Z,95936.50
2022-11-30T08:25:35.382Z,95932.25
2022-11-30T08:26:39.808Z,95934.91
2022-11-30T08:27:41.664Z,95945.72
2022-11-30T08:28:46.113Z,95934.91
2022-11-30T08:29:49.011Z,95937.19
2022-11-30T08:30:51.010Z,95930.63
2022-11-30T08:31:54.859Z,95933.31
2022-11-30T08:32:56.895Z,95941.84
2022-11-30T08:34:02.470Z,95941.03
2022-11-30T08:35:06.230Z,95936.44
2022-11-30T08:36:09.671Z,95937.19
2022-11-30T08:37:12.509Z,95935.63
2022-11-30T08:38:14.422Z,95941.03
2022-11-30T08:39:17.333Z,95934.50
2022-11-30T08:40:19.862Z,95939.91
2022-11-30T08:41:23.264Z,95934.50
2022-11-30T08:42:29.063Z,95936.44
2022-11-30T08:43:31.563Z,95943.75
2022-11-30T08:44:34.435Z,95938.34
2022-11-30T08:45:36.561Z,95939.50
2022-11-30T08:46:54.781Z,95946.03
2022-11-30T08:47:57.728Z,95946.03
2022-11-30T08:49:19.803Z,95945.69
2022-11-30T08:50:22.899Z,95947.25
2022-11-30T08:51:24.991Z,95945.31
2022-11-30T08:52:28.721Z,95946.84
2022-11-30T08:53:31.633Z,95954.63
2022-11-30T08:54:33.549Z,95949.97
2022-11-30T08:55:36.469Z,95952.69
2022-11-30T08:56:38.399Z,95954.25
2022-11-30T08:57:42.657Z,95954.25
2022-11-30T08:58:46.036Z,95955.78
2022-11-30T08:59:48.629Z,95960.03
2022-11-30T09:01:58.624Z,95958.91
2022-11-30T09:03:01.618Z,95957.34
2022-11-30T09:04:03.636Z,95961.97
2022-11-30T09:05:07.384Z,95960.03
2022-11-30T09:06:12.905Z,95958.88
2022-11-30T09:07:14.883Z,95964.28
2022-11-30T09:08:17.866Z,95956.50
2022-11-30T09:09:19.913Z,95958.44
2022-11-30T09:10:22.874Z,95970.03
2022-11-30T09:11:26.750Z,95959.59
2022-11-30T09:12:29.698Z,95961.91
2022-11-30T09:13:32.929Z,95967.69
2022-11-30T09:14:36.329Z,95971.13
2022-11-30T09:15:39.338Z,95969.56
2022-11-30T09:16:42.607Z,95971.13
2022-11-30T09:17:44.818Z,95976.53
2022-11-30T09:18:48.548Z,95965.34
2022-11-30T09:19:51.506Z,95966.88
2022-11-30T09:20:54.864Z,95973.47
2022-11-30T09:21:57.770Z,95968.81
2022-11-30T09:23:01.302Z,95964.97
2022-11-30T09:24:04.329Z,95961.13
2022-11-30T09:25:08.510Z,95969.63
2022-11-30T09:26:12.236Z,95975.78
2022-11-30T09:27:15.136Z,95977.34
2022-11-30T09:28:18.019Z,95971.94
2022-11-30T09:29:22.455Z,95978.09
2022-11-30T09:30:29.924Z,95976.19
2022-11-30T09:31:32.839Z,95968.81
2022-11-30T09:32:35.670Z,95965.75
2022-11-30T09:33:39.535Z,95968.88
2022-11-30T09:34:43.028Z,95979.69
2022-11-30T09:35:46.071Z,95967.69
2022-11-30T09:36:49.092Z,95963.09
2022-11-30T09:37:53.237Z,95963.88
2022-11-30T09:38:58.542Z,95964.63
2022-11-30T09:40:01.411Z,95963.50
2022-11-30T09:41:07.124Z,95962.34
2022-11-30T09:42:22.920Z,95965.81
2022-11-30T09:43:39.036Z,95971.22
2022-11-30T09:44:53.410Z,95954.97
2022-11-30T09:46:00.248Z,95967.38
2022-11-30T09:47:18.703Z,95965.44
2022-11-30T09:48:47.175Z,95960.81
2022-11-30T09:49:49.172Z,95964.28
2022-11-30T09:50:52.559Z,95958.09
2022-11-30T09:51:56.862Z,95959.66
2022-11-30T09:53:03.393Z,95959.66
2022-11-30T09:54:12.962Z,95953.09
2022-11-30T09:55:25.672Z,95961.97
2022-11-30T09:56:31.717Z,95964.31
2022-11-30T09:57:41.568Z,95953.50
2022-11-30T09:58:49.323Z,95964.31
2022-11-30T09:59:56.963Z,95965.09
2022-11-30T10:01:06.558Z,95963.16
2022-11-30T10:02:18.036Z,95960.44
2022-11-30T10:03:24.922Z,95960.44
2022-11-30T10:04:29.912Z,95958.91
2022-11-30T10:05:46.726Z,95956.97
2022-11-30T10:07:02.651Z,95955.03
2022-11-30T10:08:22.779Z,95959.69
2022-11-30T10:09:34.007Z,95956.97
2022-11-30T10:10:40.248Z,95948.06
2022-11-30T10:11:52.167Z,95960.44
2022-11-30T10:13:02.540Z,95952.31
2022-11-30T10:14:24.163Z,95956.59
2022-11-30T10:15:42.475Z,95951.19
2022-11-30T10:16:50.323Z,95951.19
2022-11-30T10:17:55.922Z,95956.59
2022-11-30T10:19:05.689Z,95951.19
2022-11-30T10:20:47.383Z,95951.19
2022-11-30T10:22:03.868Z,95952.31
2022-11-30T10:23:24.676Z,95949.63
2022-11-30T10:24:37.892Z,95953.13
2022-11-30T10:25:51.746Z,95951.19
2022-11-30T10:26:56.599Z,95955.03
2022-11-30T10:28:38.216Z,95956.59
2022-11-30T10:29:35.165Z,95954.66
2022-11-30T10:30:38.426Z,95952.72
2022-11-30T10:31:43.947Z,95959.72
2022-11-30T10:32:51.904Z,95951.97
2022-11-30T10:33:59.640Z,95953.91
2022-11-30T10:35:14.377Z,95951.97
2022-11-30T10:36:26.505Z,95953.91
2022-11-30T10:37:36.356Z,95957.38
2022-11-30T10:38:44.132Z,95958.91
2022-11-30T10:39:58.204Z,95960.44
2022-11-30T10:41:09.403Z,95963.50
2022-11-30T10:42:16.878Z,95962.69
2022-11-30T10:43:27.030Z,95956.09
2022-11-30T10:44:33.156Z,95959.59
2022-11-30T10:45:40.655Z,95959.59
2022-11-30T10:46:59.568Z,95967.34
2022-11-30T10:48:08.861Z,95953.44
2022-11-30T10:49:16.663Z,95958.84
2022-11-30T10:50:19.801Z,95957.28
2022-11-30T10:51:23.657Z,95949.56
2022-11-30T10:52:29.124Z,95949.56
2022-11-30T10:53:33.446Z,95944.91
2022-11-30T10:54:37.977Z,95949.16
2022-11-30T10:55:44.821Z,95950.34
2022-11-30T10:56:48.115Z,95947.28
2022-11-30T10:58:01.713Z,95944.97
2022-11-30T10:59:10.781Z,95947.66
2022-11-30T11:00:18.314Z,95947.66
2022-11-30T11:01:34.022Z,95945.38
2022-11-30T11:02:42.385Z,95942.66
2022-11-30T11:03:44.398Z,95943.44
2022-11-30T11:04:47.527Z,95942.28
2022-11-30T11:06:06.652Z,95938.78
2022-11-30T11:07:11.437Z,95939.59
2022-11-30T11:08:20.644Z,95934.94
2022-11-30T11:09:35.843Z,95941.91
2022-11-30T11:10:49.656Z,95934.94
2022-11-30T11:11:55.104Z,95938.78
2022-11-30T11:12:58.972Z,95932.59
2022-11-30T11:14:18.828Z,95933.38
2022-11-30T11:15:24.854Z,95939.59
2022-11-30T11:16:26.733Z,95931.47
2022-11-30T11:17:33.019Z,95929.53
2022-11-30T11:18:38.525Z,95931.84
2022-11-30T11:19:43.696Z,95932.66
2022-11-30T11:20:45.555Z,95931.06
2022-11-30T11:21:51.463Z,95924.53
2022-11-30T11:22:54.525Z,95929.94
2022-11-30T11:23:59.057Z,95921.00
2022-11-30T11:25:12.670Z,95932.66
2022-11-30T11:26:20.519Z,95930.72
2022-11-30T11:27:28.429Z,95924.94
2022-11-30T11:28:31.130Z,95936.53
2022-11-30T11:29:35.687Z,95929.53
2022-11-30T11:30:39.147Z,95935.38
2022-11-30T11:31:44.267Z,95930.34
2022-11-30T11:32:59.862Z,95931.88
2022-11-30T11:34:06.125Z,95931.88
2022-11-30T11:35:33.927Z,95926.47
2022-11-30T11:36:36.998Z,95937.28
2022-11-30T11:37:41.572Z,95932.28
2022-11-30T11:38:46.399Z,95930.72
2022-11-30T11:40:06.219Z,95935.75
2022-11-30T11:41:17.969Z,95930.34
2022-11-30T11:42:22.436Z,95929.53
2022-11-30T11:43:27.822Z,95926.84
2022-11-30T11:44:29.743Z,95929.53
2022-11-30T11:45:39.075Z,95933.41
2022-11-30T11:46:55.479Z,95923.75
2022-11-30T11:48:00.464Z,95931.88
2022-11-30T11:49:06.974Z,95929.19
2022-11-30T11:51:04.885Z,95927.25
2022-11-30T11:52:02.799Z,95926.47
2022-11-30T11:53:15.317Z,95928.00
2022-11-30T11:54:24.540Z,95933.41
2022-11-30T11:55:26.563Z,95927.25
2022-11-30T11:56:32.760Z,95923.75
2022-11-30T11:57:42.824Z,95931.88
2022-11-30T11:58:51.522Z,95931.88
2022-11-30T11:59:59.928Z,95930.72
2022-11-30T12:01:38.243Z,95925.31
2022-11-30T12:02:39.300Z,95932.28
2022-11-30T12:03:51.128Z,95928.00
2022-11-30T12:04:58.653Z,95923.41
2022-11-30T12:06:05.177Z,95924.16
2022-11-30T12:07:18.350Z,95933.06
2022-11-30T12:08:32.338Z,95936.53
2022-11-30T12:09:40.668Z,95933.84
2022-11-30T12:10:52.664Z,95924.56
2022-11-30T12:11:55.282Z,95931.13
2022-11-30T12:12:59.936Z,95921.09
2022-11-30T12:14:09.377Z,95927.28
2022-11-30T12:15:13.651Z,95927.28
2022-11-30T12:16:33.291Z,95929.97
2022-11-30T12:17:52.247Z,95928.03
2022-11-30T12:19:01.027Z,95921.84
2022-11-30T12:20:18.518Z,95912.56
2022-11-30T12:21:32.824Z,95919.56
2022-11-30T12:22:55.522Z,95911.44
2022-11-30T12:24:22.736Z,95912.97
2022-11-30T12:25:28.209Z,95915.28
2022-11-30T12:26:38.235Z,95912.56
2022-11-30T12:27:52.012Z,95917.97
2022-11-30T12:29:21.950Z,95915.69
2022-11-30T12:30:28.508Z,95914.91
2022-11-30T12:31:43.195Z,95910.25
2022-11-30T12:33:09.764Z,95917.97
2022-11-30T12:34:19.120Z,95915.69
2022-11-30T12:35:35.212Z,95921.09
2022-11-30T12:36:54.190Z,95918.38
2022-11-30T12:38:08.914Z,95921.09
2022-11-30T12:39:25.866Z,95926.50
2022-11-30T12:40:39.447Z,95936.22
2022-11-30T12:41:50.764Z,95927.28
2022-11-30T12:43:01.757Z,95926.50
2022-11-30T12:44:22.237Z,95926.50
2022-11-30T12:45:30.839Z,95928.81
2022-11-30T12:46:38.537Z,95922.63
2022-11-30T12:47:51.163Z,95924.56
2022-11-30T12:49:11.311Z,95924.56
2022-11-30T12:50:33.829Z,95922.63
2022-11-30T12:51:44.837Z,95928.03